Time;durP1;ratioP1;P1;durP2;ratioP2;P2;SDS_P1;SDS_P2;PMS_P1;PMS_P2;Temp;Humidity;BMP_temperature;BMP_pressure;BME280_temperature;BME280_humidity;BME280_pressure;Samples;Min_cycle;Max_cycle;Signal;HPM_P1;HPM_P2
2022/07/17 00:00:33;;;;;;;4.20;2.33;;;13.80;99.90;;;;;;5013817;28;20453;-74
2022/07/17 00:03:23;;;;;;;4.90;2.73;;;13.80;99.90;;;;;;5009462;28;20978;-74
2022/07/17 00:06:12;;;;;;;5.20;2.70;;;13.80;99.90;;;;;;5003006;28;20461;-74
2022/07/17 00:09:00;;;;;;;4.80;2.23;;;13.70;99.90;;;;;;5009697;28;20460;-74
2022/07/17 00:11:48;;;;;;;7.60;3.30;;;13.60;99.90;;;;;;5003187;28;20568;-74
2022/07/17 00:14:36;;;;;;;8.07;2.90;;;13.60;99.90;;;;;;5009712;28;20473;-74
2022/07/17 00:17:26;;;;;;;6.83;2.70;;;13.60;99.90;;;;;;5004585;28;20973;-74
2022/07/17 00:20:15;;;;;;;3.10;2.50;;;13.60;99.90;;;;;;5006883;28;20494;-74
2022/07/17 00:23:04;;;;;;;6.53;2.80;;;13.50;99.90;;;;;;5013567;28;21156;-74
2022/07/17 00:25:52;;;;;;;3.53;2.40;;;13.50;99.90;;;;;;5005421;28;20519;-74
2022/07/17 00:28:40;;;;;;;4.50;3.07;;;13.50;99.90;;;;;;5010634;28;20444;-74
2022/07/17 00:31:29;;;;;;;7.10;2.57;;;13.40;99.90;;;;;;5001280;28;20616;-74
2022/07/17 00:34:18;;;;;;;5.70;2.90;;;13.30;99.90;;;;;;5016436;28;20507;-74
2022/07/17 00:37:10;;;;;;;3.47;2.70;;;13.30;99.90;;;;;;5005593;28;20452;-75
2022/07/17 00:39:58;;;;;;;3.07;2.20;;;13.30;99.90;;;;;;5013860;28;20589;-76
2022/07/17 00:42:46;;;;;;;7.20;2.90;;;13.30;99.90;;;;;;5012127;28;20629;-74
2022/07/17 00:45:35;;;;;;;5.27;2.80;;;13.30;99.90;;;;;;5007110;28;20500;-74
2022/07/17 00:48:23;;;;;;;4.00;2.60;;;13.20;99.90;;;;;;5006733;28;21035;-74
2022/07/17 00:51:12;;;;;;;5.23;2.60;;;13.30;99.90;;;;;;5004185;28;20546;-74
2022/07/17 00:54:04;;;;;;;5.43;2.80;;;13.20;99.90;;;;;;5009171;28;20469;-74
2022/07/17 00:56:58;;;;;;;3.93;2.77;;;13.10;99.90;;;;;;5007188;28;20448;-74
2022/07/17 00:59:47;;;;;;;4.27;2.77;;;13.10;99.90;;;;;;5005943;28;20558;-74
2022/07/17 01:02:35;;;;;;;4.43;2.80;;;13.10;99.90;;;;;;5006063;28;20633;-74
2022/07/17 01:05:24;;;;;;;6.33;2.50;;;13.00;99.90;;;;;;5008334;28;20472;-75
2022/07/17 01:08:13;;;;;;;5.70;2.57;;;13.00;99.90;;;;;;5004350;28;20537;-74
2022/07/17 01:11:03;;;;;;;3.17;2.80;;;13.00;99.90;;;;;;5007068;28;20551;-73
2022/07/17 01:13:52;;;;;;;6.70;3.20;;;13.00;99.90;;;;;;5004678;28;20506;-74
2022/07/17 01:16:44;;;;;;;3.83;2.90;;;12.90;99.90;;;;;;5010218;28;20459;-74
2022/07/17 01:19:32;;;;;;;3.07;2.70;;;12.90;99.90;;;;;;5008508;28;20449;-74
2022/07/17 01:22:22;;;;;;;4.73;2.37;;;12.90;99.90;;;;;;5012921;28;20475;-74
2022/07/17 01:25:10;;;;;;;3.30;2.20;;;12.90;99.90;;;;;;5004967;28;20973;-74
2022/07/17 01:27:59;;;;;;;5.67;3.23;;;12.90;99.90;;;;;;5006848;28;20456;-74
2022/07/17 01:30:50;;;;;;;6.70;3.00;;;12.90;99.90;;;;;;5007248;28;20467;-74
2022/07/17 01:33:40;;;;;;;5.00;2.70;;;12.90;99.90;;;;;;5006908;28;20976;-73
2022/07/17 01:36:28;;;;;;;4.10;2.97;;;12.90;99.90;;;;;;5008706;28;20556;-74
2022/07/17 01:39:17;;;;;;;5.03;2.90;;;12.90;99.90;;;;;;5009610;28;20555;-74
2022/07/17 01:42:05;;;;;;;4.10;2.47;;;12.90;99.90;;;;;;5009764;28;21073;-74
2022/07/17 01:44:55;;;;;;;3.87;3.10;;;12.90;99.90;;;;;;5008479;28;20583;-74
2022/07/17 01:47:43;;;;;;;5.60;2.73;;;12.90;99.90;;;;;;5011818;28;20487;-74
2022/07/17 01:50:32;;;;;;;3.73;2.77;;;12.90;99.90;;;;;;5006753;28;20542;-74
2022/07/17 01:53:20;;;;;;;4.77;2.87;;;12.90;99.90;;;;;;5003008;28;20943;-74
2022/07/17 01:56:10;;;;;;;4.40;3.27;;;12.90;99.90;;;;;;5002801;28;20541;-74
2022/07/17 01:58:58;;;;;;;5.63;2.83;;;13.00;99.90;;;;;;5011243;28;20835;-74
2022/07/17 02:01:46;;;;;;;5.80;3.03;;;13.00;99.90;;;;;;5000782;28;20481;-74
2022/07/17 02:04:36;;;;;;;3.60;3.20;;;13.00;99.90;;;;;;5004460;28;20791;-74
2022/07/17 02:07:24;;;;;;;5.37;2.80;;;13.00;99.90;;;;;;5015277;28;20523;-74
2022/07/17 02:10:14;;;;;;;6.47;3.20;;;13.00;99.90;;;;;;5014405;28;20474;-74
2022/07/17 02:13:04;;;;;;;6.10;3.43;;;13.00;99.90;;;;;;5006746;28;20493;-74
2022/07/17 02:15:52;;;;;;;4.70;2.40;;;13.00;99.90;;;;;;5009075;28;20455;-74
2022/07/17 02:18:41;;;;;;;4.50;2.63;;;13.10;99.90;;;;;;5007319;28;20456;-74
2022/07/17 02:21:30;;;;;;;5.73;2.40;;;13.10;99.90;;;;;;5008086;28;20995;-74
2022/07/17 02:24:18;;;;;;;4.13;2.60;;;13.10;99.90;;;;;;5009085;28;20445;-74
2022/07/17 02:27:06;;;;;;;4.87;2.80;;;13.10;99.90;;;;;;5012739;28;20729;-74
2022/07/17 02:29:56;;;;;;;2.97;2.33;;;13.20;99.90;;;;;;5006545;28;20904;-74
2022/07/17 02:32:45;;;;;;;7.67;2.20;;;13.20;99.90;;;;;;5006936;28;20602;-74
2022/07/17 02:35:33;;;;;;;5.63;2.60;;;13.20;99.90;;;;;;5009753;28;20540;-74
2022/07/17 02:38:21;;;;;;;7.57;2.67;;;13.20;99.90;;;;;;5009254;28;20460;-74
2022/07/17 02:41:10;;;;;;;3.53;2.63;;;13.30;99.90;;;;;;5006363;28;20631;-74
2022/07/17 02:43:58;;;;;;;2.67;2.47;;;13.30;99.90;;;;;;5006389;28;20454;-74
2022/07/17 02:46:47;;;;;;;6.63;2.93;;;13.30;99.90;;;;;;5006515;28;20567;-74
2022/07/17 02:49:36;;;;;;;4.70;2.60;;;13.30;99.90;;;;;;5003091;28;20481;-74
2022/07/17 02:52:24;;;;;;;4.97;2.53;;;13.30;99.90;;;;;;5009519;28;20468;-74
2022/07/17 02:55:12;;;;;;;3.37;2.70;;;13.30;99.90;;;;;;5007846;28;20512;-74
2022/07/17 02:58:01;;;;;;;4.43;3.07;;;13.40;99.90;;;;;;5010041;28;20546;-74
2022/07/17 03:00:49;;;;;;;4.60;2.50;;;13.40;99.90;;;;;;5007811;28;20464;-74
2022/07/17 03:03:41;;;;;;;4.10;2.73;;;13.40;99.90;;;;;;5002088;28;20476;-74
2022/07/17 03:06:30;;;;;;;4.33;2.83;;;13.40;99.90;;;;;;5006260;28;20468;-74
2022/07/17 03:09:18;;;;;;;3.20;2.30;;;13.40;99.90;;;;;;5006783;28;20590;-74
2022/07/17 03:12:07;;;;;;;3.53;2.80;;;13.40;99.90;;;;;;5002717;28;20592;-74
2022/07/17 03:14:55;;;;;;;5.03;2.60;;;13.50;99.90;;;;;;5010361;28;20580;-74
2022/07/17 03:17:43;;;;;;;5.03;2.40;;;13.50;99.90;;;;;;5006384;28;21070;-74
2022/07/17 03:20:34;;;;;;;5.30;2.37;;;13.50;99.90;;;;;;5010547;28;20451;-74
2022/07/17 03:23:22;;;;;;;8.00;2.83;;;13.50;99.90;;;;;;5014269;28;20956;-74
2022/07/17 03:26:10;;;;;;;6.57;2.80;;;13.50;99.90;;;;;;5011961;28;20612;-74
2022/07/17 03:28:58;;;;;;;6.60;2.97;;;13.60;99.90;;;;;;5015198;28;20942;-74
2022/07/17 03:31:48;;;;;;;7.33;2.90;;;13.60;99.90;;;;;;5007329;28;20483;-74
2022/07/17 03:34:36;;;;;;;5.40;2.60;;;13.60;99.90;;;;;;5014238;28;21002;-74
2022/07/17 03:37:27;;;;;;;7.00;3.03;;;13.60;99.90;;;;;;5012832;28;20448;-74
2022/07/17 03:40:16;;;;;;;2.67;2.47;;;13.60;99.90;;;;;;5010736;28;20441;-74
2022/07/17 03:43:04;;;;;;;3.07;2.53;;;13.60;99.90;;;;;;5011731;28;20578;-74
2022/07/17 03:45:53;;;;;;;4.70;2.93;;;13.60;99.90;;;;;;5009711;28;20460;-74
2022/07/17 03:48:41;;;;;;;3.47;2.43;;;13.60;99.90;;;;;;5006328;28;20503;-74
2022/07/17 03:51:30;;;;;;;4.10;2.30;;;13.60;99.90;;;;;;5009317;28;20630;-74
2022/07/17 03:54:20;;;;;;;3.67;2.47;;;13.60;99.90;;;;;;5006853;28;20595;-74
2022/07/17 03:57:08;;;;;;;3.67;2.40;;;13.60;99.90;;;;;;5007986;28;20531;-74
2022/07/17 03:59:56;;;;;;;5.03;2.63;;;13.60;99.90;;;;;;5013216;28;20554;-74
2022/07/17 04:02:45;;;;;;;4.70;3.00;;;13.70;99.90;;;;;;5004026;28;20540;-74
2022/07/17 04:05:33;;;;;;;4.10;2.80;;;13.70;99.90;;;;;;5012582;28;20448;-74
2022/07/17 04:08:22;;;;;;;3.83;2.47;;;13.70;99.90;;;;;;5011144;28;20542;-74
2022/07/17 04:11:11;;;;;;;4.33;2.20;;;13.70;99.90;;;;;;5008873;28;20496;-74
2022/07/17 04:14:00;;;;;;;4.93;2.70;;;13.70;99.90;;;;;;5007784;28;20506;-74
2022/07/17 04:16:48;;;;;;;3.00;2.67;;;13.70;99.90;;;;;;5014312;28;20474;-74
2022/07/17 04:19:36;;;;;;;5.87;2.73;;;13.80;99.90;;;;;;5010286;28;20460;-74
2022/07/17 04:22:25;;;;;;;5.70;2.67;;;13.80;99.90;;;;;;5011562;28;20555;-75
2022/07/17 04:25:13;;;;;;;4.80;2.40;;;13.80;99.90;;;;;;5010675;28;20858;-74
2022/07/17 04:28:03;;;;;;;9.23;2.70;;;13.90;99.90;;;;;;5011007;28;20510;-74
2022/07/17 04:30:51;;;;;;;4.00;2.17;;;13.90;99.90;;;;;;5012218;28;20826;-74
2022/07/17 04:33:40;;;;;;;3.80;2.57;;;13.90;99.90;;;;;;5011505;28;20530;-74
2022/07/17 04:36:28;;;;;;;3.90;2.67;;;13.90;99.90;;;;;;5010671;28;21054;-74
2022/07/17 04:39:17;;;;;;;5.83;2.50;;;13.90;99.90;;;;;;5004633;28;20451;-74
2022/07/17 04:42:05;;;;;;;5.27;2.97;;;13.90;99.90;;;;;;5006347;28;20523;-74
2022/07/17 04:44:54;;;;;;;5.50;2.73;;;13.90;99.90;;;;;;5004795;28;20942;-74
2022/07/17 04:47:43;;;;;;;6.10;2.60;;;14.00;99.90;;;;;;4993891;28;20564;-74
2022/07/17 04:50:32;;;;;;;5.50;2.37;;;14.00;99.90;;;;;;5009786;28;20517;-74
2022/07/17 04:53:21;;;;;;;4.53;2.30;;;14.00;99.90;;;;;;5012455;28;20531;-74
2022/07/17 04:56:11;;;;;;;4.80;2.57;;;14.10;99.90;;;;;;5011825;28;20852;-74
2022/07/17 04:58:59;;;;;;;2.33;1.93;;;14.10;99.90;;;;;;5011485;28;20444;-74
2022/07/17 05:01:49;;;;;;;6.37;2.47;;;14.10;99.90;;;;;;5007618;28;20563;-74
2022/07/17 05:04:37;;;;;;;2.13;1.93;;;14.10;99.90;;;;;;5006896;28;20990;-74
2022/07/17 05:07:25;;;;;;;4.80;2.70;;;14.20;99.90;;;;;;5005354;28;21112;-74
2022/07/17 05:10:14;;;;;;;6.03;3.40;;;14.20;99.90;;;;;;5008237;28;20485;-74
2022/07/17 05:13:02;;;;;;;5.20;3.13;;;14.30;99.90;;;;;;5009464;28;20500;-75
2022/07/17 05:15:50;;;;;;;6.67;2.43;;;14.30;99.90;;;;;;5011531;28;20544;-74
2022/07/17 05:18:40;;;;;;;4.50;2.57;;;14.30;99.90;;;;;;5016506;28;20448;-74
2022/07/17 05:21:28;;;;;;;3.80;2.00;;;14.40;99.90;;;;;;5009407;28;20479;-74
2022/07/17 05:24:17;;;;;;;6.60;3.07;;;14.40;99.90;;;;;;5004411;28;20582;-74
2022/07/17 05:27:05;;;;;;;5.70;2.70;;;14.40;99.90;;;;;;5011495;28;20950;-74
2022/07/17 05:29:56;;;;;;;3.40;2.67;;;14.50;99.90;;;;;;5012241;28;20524;-74
2022/07/17 05:32:44;;;;;;;3.50;2.60;;;14.50;99.90;;;;;;5005655;28;20567;-74
2022/07/17 05:35:33;;;;;;;4.37;2.60;;;14.50;99.90;;;;;;5010518;28;20944;-74
2022/07/17 05:38:22;;;;;;;4.60;2.30;;;14.60;99.90;;;;;;4998956;28;20603;-74
2022/07/17 05:41:10;;;;;;;4.30;2.10;;;14.60;99.90;;;;;;5001762;28;20933;-74
2022/07/17 05:43:58;;;;;;;3.40;2.70;;;14.60;99.90;;;;;;5040526;22;20876;-72
2022/07/17 05:46:46;;;;;;;5.53;2.13;;;14.70;99.90;;;;;;5069375;28;20508;-72
2022/07/17 05:49:35;;;;;;;3.00;2.60;;;14.70;99.90;;;;;;5057142;28;20442;-72
2022/07/17 05:52:25;;;;;;;3.77;2.90;;;14.80;99.90;;;;;;5064223;28;20531;-72
2022/07/17 05:55:13;;;;;;;4.00;2.30;;;14.80;99.90;;;;;;5046339;28;20524;-72
2022/07/17 05:58:01;;;;;;;2.63;2.00;;;14.80;99.90;;;;;;5045676;28;20454;-72
2022/07/17 06:00:50;;;;;;;4.30;2.73;;;14.80;99.90;;;;;;5044497;28;20445;-72
2022/07/17 06:03:38;;;;;;;3.00;2.40;;;14.80;99.90;;;;;;5034673;28;20475;-72
2022/07/17 06:06:26;;;;;;;4.23;2.10;;;14.80;99.90;;;;;;5030036;28;20463;-72
2022/07/17 06:09:16;;;;;;;5.20;2.20;;;14.90;99.90;;;;;;5043967;28;20529;-72
2022/07/17 06:12:04;;;;;;;3.97;2.10;;;14.90;99.90;;;;;;5047739;28;20982;-72
2022/07/17 06:14:52;;;;;;;2.87;2.30;;;15.00;99.90;;;;;;5043041;28;20618;-72
2022/07/17 06:17:41;;;;;;;5.37;2.33;;;15.10;99.90;;;;;;5046261;28;21090;-72
2022/07/17 06:20:31;;;;;;;3.43;2.30;;;15.10;99.90;;;;;;5047130;28;20515;-72
2022/07/17 06:23:20;;;;;;;5.33;2.53;;;15.20;99.90;;;;;;5042576;28;21404;-72
2022/07/17 06:26:09;;;;;;;5.13;2.23;;;15.20;99.90;;;;;;5046691;28;20451;-72
2022/07/17 06:28:57;;;;;;;3.23;2.50;;;15.30;99.90;;;;;;5048624;28;20627;-72
2022/07/17 06:31:46;;;;;;;3.73;2.20;;;15.30;99.90;;;;;;5048960;28;20561;-72
2022/07/17 06:34:34;;;;;;;2.60;2.20;;;15.30;99.90;;;;;;5046446;28;21056;-72
2022/07/17 06:37:22;;;;;;;4.67;2.00;;;15.40;99.90;;;;;;5036872;28;20650;-72
2022/07/17 06:40:11;;;;;;;2.93;2.20;;;15.50;99.90;;;;;;5049723;28;20478;-72
2022/07/17 06:43:00;;;;;;;3.17;2.37;;;15.60;99.90;;;;;;5046084;28;20459;-72
2022/07/17 06:45:51;;;;;;;2.97;2.00;;;15.60;99.90;;;;;;5041687;28;20534;-72
2022/07/17 06:48:39;;;;;;;3.87;2.10;;;15.60;99.90;;;;;;5043362;28;20486;-72
2022/07/17 06:51:28;;;;;;;6.20;2.17;;;15.60;99.90;;;;;;5050979;28;20454;-72
2022/07/17 06:54:17;;;;;;;4.07;2.00;;;15.60;99.90;;;;;;5051766;28;20605;-72
2022/07/17 06:57:05;;;;;;;5.37;2.20;;;15.60;99.90;;;;;;5050980;28;20482;-72
2022/07/17 06:59:55;;;;;;;3.33;2.30;;;15.60;99.90;;;;;;5049856;28;20512;-72
2022/07/17 07:02:43;;;;;;;2.40;2.13;;;15.70;99.90;;;;;;5052713;28;20468;-72
2022/07/17 07:05:31;;;;;;;4.33;2.57;;;15.70;99.90;;;;;;5047642;28;20500;-72
2022/07/17 07:08:19;;;;;;;3.40;2.10;;;15.80;99.90;;;;;;5048005;28;20652;-72
2022/07/17 07:11:08;;;;;;;3.00;2.00;;;15.70;99.90;;;;;;5053250;28;20463;-72
2022/07/17 07:13:56;;;;;;;4.53;2.30;;;15.80;99.90;;;;;;5045981;28;20945;-72
2022/07/17 07:16:46;;;;;;;2.30;1.93;;;15.80;99.90;;;;;;5040864;28;20465;-72
2022/07/17 07:19:34;;;;;;;3.90;2.50;;;15.80;99.90;;;;;;5051740;28;20561;-72
2022/07/17 07:22:22;;;;;;;3.87;2.33;;;15.80;99.90;;;;;;5049707;28;20613;-71
2022/07/17 07:25:10;;;;;;;4.10;2.10;;;15.80;99.90;;;;;;5047365;28;20656;-71
2022/07/17 07:27:59;;;;;;;3.67;2.40;;;15.90;99.90;;;;;;5057103;28;20572;-71
2022/07/17 07:30:47;;;;;;;6.30;2.17;;;16.00;99.90;;;;;;5043126;28;20514;-72
2022/07/17 07:33:37;;;;;;;3.33;2.20;;;16.00;99.90;;;;;;5050256;28;20610;-73
2022/07/17 07:36:26;;;;;;;5.83;2.60;;;16.00;99.90;;;;;;5043769;28;20545;-72
2022/07/17 07:39:17;;;;;;;5.20;2.67;;;16.00;99.90;;;;;;5045749;28;20520;-72
2022/07/17 07:42:07;;;;;;;4.70;2.70;;;16.00;99.90;;;;;;5050844;28;20556;-73
2022/07/17 07:44:55;;;;;;;3.53;2.30;;;16.10;99.90;;;;;;5051932;28;20897;-72
2022/07/17 07:47:44;;;;;;;3.50;2.50;;;16.20;99.90;;;;;;5040113;28;20463;-73
2022/07/17 07:50:34;;;;;;;5.87;2.60;;;16.20;99.90;;;;;;5051254;28;20583;-72
2022/07/17 07:53:22;;;;;;;3.90;2.03;;;16.30;99.90;;;;;;5049827;28;20821;-73
2022/07/17 07:56:11;;;;;;;5.03;2.60;;;16.20;99.90;;;;;;5047529;28;20548;-72
2022/07/17 07:59:00;;;;;;;3.33;2.10;;;16.30;99.90;;;;;;5043155;28;20453;-73
2022/07/17 08:01:48;;;;;;;4.07;2.30;;;16.40;99.90;;;;;;5052946;28;20550;-73
2022/07/17 08:04:36;;;;;;;3.73;2.60;;;16.60;99.90;;;;;;5046450;28;20485;-72
2022/07/17 08:07:28;;;;;;;8.10;2.47;;;16.60;99.90;;;;;;5048234;28;20463;-73
2022/07/17 08:10:16;;;;;;;3.70;2.70;;;16.70;99.90;;;;;;5044759;28;21330;-73
2022/07/17 08:13:04;;;;;;;3.40;2.30;;;16.70;99.90;;;;;;5046128;28;20606;-73
2022/07/17 08:15:53;;;;;;;7.13;2.67;;;16.90;99.90;;;;;;5044883;28;20552;-73
2022/07/17 08:18:41;;;;;;;4.17;2.10;;;16.90;99.90;;;;;;5050475;28;20801;-74
2022/07/17 08:21:30;;;;;;;2.83;2.27;;;16.90;99.90;;;;;;5043946;28;20982;-73
2022/07/17 08:24:19;;;;;;;4.73;3.10;;;17.00;99.90;;;;;;5043312;28;20473;-73
2022/07/17 08:27:08;;;;;;;6.80;3.27;;;17.10;99.90;;;;;;5050518;28;20443;-73
2022/07/17 08:29:56;;;;;;;8.00;2.97;;;17.20;99.90;;;;;;5048587;28;20621;-74
2022/07/17 08:32:49;;;;;;;3.70;2.50;;;17.20;99.90;;;;;;5044166;28;20458;-74
2022/07/17 08:35:38;;;;;;;3.70;2.20;;;17.30;99.90;;;;;;5048373;28;20551;-73
2022/07/17 08:38:26;;;;;;;5.10;2.50;;;17.30;99.90;;;;;;5048095;28;20470;-73
2022/07/17 08:41:21;;;;;;;3.33;2.57;;;17.40;99.90;;;;;;5048370;28;20467;-73
2022/07/17 08:44:09;;;;;;;4.97;2.37;;;17.40;99.90;;;;;;5048783;28;20552;-73
2022/07/17 08:46:59;;;;;;;3.57;2.20;;;17.50;99.90;;;;;;5044178;28;20446;-73
2022/07/17 08:49:50;;;;;;;4.17;2.40;;;17.50;99.90;;;;;;5044882;28;20471;-74
2022/07/17 08:52:39;;;;;;;4.93;2.50;;;17.50;99.90;;;;;;5047498;28;20477;-73
2022/07/17 08:55:27;;;;;;;2.27;2.07;;;17.50;99.90;;;;;;5040640;28;20459;-73
2022/07/17 08:58:18;;;;;;;3.10;2.30;;;17.50;99.90;;;;;;5048316;28;20604;-73
2022/07/17 09:01:07;;;;;;;5.00;2.33;;;17.60;99.90;;;;;;5046314;28;20764;-73
2022/07/17 09:03:57;;;;;;;4.37;2.23;;;17.70;99.90;;;;;;5050608;28;20552;-73
2022/07/17 09:06:45;;;;;;;3.30;2.00;;;17.70;99.90;;;;;;5042444;28;20926;-73
2022/07/17 09:09:34;;;;;;;4.30;2.43;;;17.60;99.90;;;;;;5047992;28;20517;-73
2022/07/17 09:12:26;;;;;;;2.80;2.00;;;17.70;99.90;;;;;;5049051;28;20447;-74
2022/07/17 09:15:18;;;;;;;3.57;2.30;;;17.70;99.90;;;;;;5047105;28;20513;-73
2022/07/17 09:18:06;;;;;;;7.80;2.23;;;17.80;99.90;;;;;;5047895;28;20446;-74
2022/07/17 09:20:57;;;;;;;3.23;2.10;;;17.90;99.90;;;;;;5052029;28;20451;-73
2022/07/17 09:23:45;;;;;;;4.00;1.90;;;18.00;99.90;;;;;;5043291;28;20582;-73
2022/07/17 09:26:35;;;;;;;2.80;2.03;;;18.10;99.90;;;;;;5043935;28;20990;-73
2022/07/17 09:29:23;;;;;;;4.30;2.03;;;18.30;99.90;;;;;;5046906;28;20552;-73
2022/07/17 09:32:17;;;;;;;4.43;2.33;;;18.30;99.90;;;;;;5043096;28;20455;-74
2022/07/17 09:35:07;;;;;;;3.13;1.83;;;18.30;99.90;;;;;;5044900;28;21012;-73
2022/07/17 09:37:56;;;;;;;4.40;2.07;;;18.30;99.90;;;;;;5047620;28;20471;-73
2022/07/17 09:44:00;;;;;;;3.53;1.83;;;18.50;99.90;;;;;;5046999;28;20489;-73
2022/07/17 09:46:48;;;;;;;6.20;2.40;;;18.60;99.90;;;;;;5047936;28;20442;-73
2022/07/17 09:49:39;;;;;;;2.97;2.20;;;18.60;99.90;;;;;;5042626;28;21003;-73
2022/07/17 09:52:34;;;;;;;3.53;2.03;;;18.60;99.90;;;;;;5049156;28;20804;-72
2022/07/17 09:55:28;;;;;;;2.43;1.70;;;18.60;99.90;;;;;;5040691;28;20909;-74
2022/07/17 09:58:40;;;;;;;2.67;1.80;;;18.70;99.90;;;;;;5038667;28;20467;-73
2022/07/17 10:01:28;;;;;;;2.80;1.67;;;18.80;99.90;;;;;;5043905;28;20451;-73
2022/07/17 10:04:17;;;;;;;3.70;1.70;;;18.90;99.90;;;;;;5041458;28;20484;-74
2022/07/17 10:07:09;;;;;;;2.20;1.57;;;19.00;99.90;;;;;;5043130;28;20467;-74
2022/07/17 10:09:59;;;;;;;3.20;1.50;;;19.00;99.90;;;;;;5042767;28;20474;-74
2022/07/17 10:12:51;;;;;;;4.00;1.27;;;19.00;99.90;;;;;;5047314;28;20489;-73
2022/07/17 10:15:39;;;;;;;3.80;1.47;;;19.10;99.90;;;;;;5046470;28;20544;-73
2022/07/17 10:18:40;;;;;;;3.50;1.60;;;19.20;99.90;;;;;;5046637;28;20819;-74
2022/07/17 10:21:30;;;;;;;1.70;1.50;;;19.30;99.90;;;;;;5041198;28;20454;-73
2022/07/17 10:24:20;;;;;;;2.50;1.50;;;19.40;99.90;;;;;;5043828;28;20506;-73
2022/07/17 10:27:18;;;;;;;2.20;1.40;;;19.50;99.90;;;;;;5047785;28;20558;-73
2022/07/17 10:30:10;;;;;;;3.70;1.73;;;19.50;99.90;;;;;;5044205;28;20478;-74
2022/07/17 10:33:06;;;;;;;2.20;1.60;;;19.60;99.90;;;;;;5043332;28;20494;-74
2022/07/17 10:35:54;;;;;;;3.07;1.80;;;19.70;99.90;;;;;;5045812;28;20466;-74
2022/07/17 10:38:43;;;;;;;1.60;1.50;;;19.70;99.90;;;;;;5045204;28;22298;-74
2022/07/17 10:41:33;;;;;;;4.33;1.83;;;19.70;99.90;;;;;;5028226;28;20450;-73
2022/07/17 10:44:26;;;;;;;1.53;1.43;;;19.70;99.90;;;;;;5044333;28;21028;-73
2022/07/17 10:47:14;;;;;;;2.03;1.17;;;19.70;99.90;;;;;;5045913;28;20490;-73
2022/07/17 10:50:11;;;;;;;4.43;2.00;;;19.80;99.90;;;;;;5043504;28;20463;-74
2022/07/17 10:53:02;;;;;;;2.90;1.70;;;19.80;99.90;;;;;;5046714;28;20570;-73
2022/07/17 10:55:53;;;;;;;2.60;2.07;;;19.80;99.90;;;;;;5046416;28;20458;-74
2022/07/17 10:58:44;;;;;;;2.70;1.80;;;19.90;99.90;;;;;;5046279;28;20442;-73
2022/07/17 11:01:33;;;;;;;3.93;2.07;;;20.00;99.90;;;;;;5041244;28;20558;-73
2022/07/17 11:04:21;;;;;;;3.90;1.90;;;20.10;99.90;;;;;;5039083;28;20467;-73
2022/07/17 11:07:09;;;;;;;3.30;1.80;;;20.20;99.90;;;;;;5050793;28;20642;-72
2022/07/17 11:09:57;;;;;;;1.97;1.73;;;20.20;99.90;;;;;;5046036;28;20561;-73
2022/07/17 11:12:46;;;;;;;3.73;1.80;;;20.30;99.90;;;;;;5050683;28;20898;-73
2022/07/17 11:15:44;;;;;;;2.73;1.67;;;20.40;99.90;;;;;;5047067;28;20455;-73
2022/07/17 11:18:32;;;;;;;2.70;1.83;;;20.40;99.90;;;;;;5045594;28;20450;-73
2022/07/17 11:21:21;;;;;;;2.33;1.37;;;20.50;99.90;;;;;;5048517;28;20813;-73
2022/07/17 11:24:10;;;;;;;2.00;1.80;;;20.60;99.90;;;;;;5036321;28;20475;-73
2022/07/17 11:26:58;;;;;;;3.00;1.87;;;20.70;99.90;;;;;;5049574;28;20528;-73
2022/07/17 11:29:48;;;;;;;2.73;1.30;;;20.70;99.90;;;;;;5043761;28;20470;-73
2022/07/17 11:32:39;;;;;;;1.87;1.43;;;20.70;99.90;;;;;;5046650;28;20450;-72
2022/07/17 11:35:28;;;;;;;3.07;1.50;;;20.80;99.90;;;;;;5048724;28;20609;-73
2022/07/17 11:38:30;;;;;;;2.30;1.60;;;20.90;99.90;;;;;;5050641;28;20461;-73
2022/07/17 11:41:19;;;;;;;3.20;1.77;;;20.90;99.90;;;;;;5044164;28;20469;-73
2022/07/17 11:44:10;;;;;;;2.33;1.47;;;21.00;99.90;;;;;;5065163;22;21124;-75
2022/07/17 11:46:58;;;;;;;4.00;1.60;;;21.10;99.90;;;;;;5039277;28;20482;-76
2022/07/17 11:50:05;;;;;;;2.60;1.60;;;21.10;99.90;;;;;;5025377;28;20556;-76
2022/07/17 11:53:01;;;;;;;2.00;1.53;;;21.20;99.90;;;;;;5035835;28;20478;-75
2022/07/17 11:55:49;;;;;;;2.70;1.63;;;21.30;99.90;;;;;;5033431;28;20557;-76
2022/07/17 11:58:45;;;;;;;2.33;1.60;;;21.40;99.90;;;;;;5019940;28;20480;-75
2022/07/17 12:01:40;;;;;;;1.73;1.63;;;21.50;99.90;;;;;;5039778;28;20435;-75
2022/07/17 12:04:28;;;;;;;3.53;1.80;;;21.60;99.90;;;;;;5030350;28;20506;-75
2022/07/17 12:07:18;;;;;;;3.10;1.70;;;21.50;99.90;;;;;;5028476;28;20654;-73
2022/07/17 12:10:13;;;;;;;1.67;1.57;;;21.50;99.90;;;;;;5033070;28;20463;-75
2022/07/17 12:13:04;;;;;;;1.70;1.60;;;21.50;99.90;;;;;;5027566;28;20475;-76
2022/07/17 12:15:52;;;;;;;4.73;1.93;;;21.60;99.90;;;;;;5036801;28;20497;-75
2022/07/17 12:18:42;;;;;;;2.53;1.70;;;21.70;99.90;;;;;;5032407;28;20959;-75
2022/07/17 12:21:32;;;;;;;2.00;1.40;;;21.70;99.90;;;;;;5031031;28;20594;-75
2022/07/17 12:24:25;;;;;;;2.00;1.50;;;21.70;99.90;;;;;;5027204;28;20927;-75
2022/07/17 12:27:16;;;;;;;2.30;1.53;;;21.70;99.90;;;;;;5035927;28;20447;-75
2022/07/17 12:30:05;;;;;;;2.10;1.60;;;21.60;99.90;;;;;;5034052;28;20469;-76
2022/07/17 12:32:53;;;;;;;3.53;1.47;;;21.70;99.90;;;;;;5030594;28;20535;-76
2022/07/17 12:35:41;;;;;;;2.60;1.50;;;21.70;99.90;;;;;;5033106;28;20566;-76
2022/07/17 12:38:29;;;;;;;4.13;1.70;;;21.80;99.90;;;;;;5020530;28;20550;-75
2022/07/17 12:41:19;;;;;;;2.90;1.67;;;21.90;99.90;;;;;;5029539;28;20436;-75
2022/07/17 12:44:08;;;;;;;4.67;2.20;;;22.00;99.90;;;;;;5024363;28;20450;-76
2022/07/17 12:46:56;;;;;;;1.43;1.33;;;22.20;99.90;;;;;;5033760;28;20500;-75
2022/07/17 12:49:45;;;;;;;2.27;1.50;;;22.30;99.90;;;;;;5022285;28;20562;-75
2022/07/17 12:52:33;;;;;;;6.73;1.70;;;22.50;99.90;;;;;;5035164;28;20535;-75
2022/07/17 12:55:22;;;;;;;2.73;1.40;;;22.50;99.90;;;;;;5023160;28;20962;-75
2022/07/17 12:58:11;;;;;;;2.27;1.40;;;22.60;99.90;;;;;;5025214;28;21157;-75
2022/07/17 13:00:59;;;;;;;3.60;1.40;;;22.70;99.90;;;;;;5030968;28;20570;-76
2022/07/17 13:03:48;;;;;;;1.37;1.27;;;22.80;99.90;;;;;;5027759;28;20474;-73
2022/07/17 13:06:36;;;;;;;2.90;1.73;;;22.80;99.90;;;;;;5038672;28;20491;-73
2022/07/17 13:09:25;;;;;;;2.20;1.53;;;22.90;99.90;;;;;;5029806;28;20502;-74
2022/07/17 13:12:14;;;;;;;1.30;1.20;;;23.10;99.90;;;;;;5029302;28;20514;-73
2022/07/17 13:15:05;;;;;;;3.07;1.67;;;23.10;99.90;;;;;;5031057;28;20614;-73
2022/07/17 13:17:54;;;;;;;2.07;1.13;;;23.30;99.90;;;;;;5031577;28;20456;-74
2022/07/17 13:20:42;;;;;;;2.40;1.40;;;23.40;99.90;;;;;;5022377;28;20572;-74
2022/07/17 13:23:30;;;;;;;1.23;1.13;;;23.60;99.90;;;;;;5026090;28;20496;-74
2022/07/17 13:26:18;;;;;;;3.10;1.53;;;23.80;99.90;;;;;;5034896;28;20473;-74
2022/07/17 13:29:07;;;;;;;1.47;1.10;;;23.70;99.90;;;;;;5031948;28;20597;-74
2022/07/17 13:31:57;;;;;;;1.40;1.20;;;23.80;99.90;;;;;;5024842;28;20901;-74
2022/07/17 13:34:45;;;;;;;2.07;1.33;;;23.80;99.90;;;;;;5025418;28;20482;-74
2022/07/17 13:37:33;;;;;;;2.53;1.07;;;23.90;99.90;;;;;;5029525;28;20841;-74
2022/07/17 13:40:24;;;;;;;3.03;1.20;;;24.10;99.90;;;;;;5027640;28;20459;-74
2022/07/17 13:43:12;;;;;;;1.80;1.23;;;24.20;99.90;;;;;;5030665;28;20603;-74
2022/07/17 13:46:00;;;;;;;1.30;1.20;;;24.30;99.90;;;;;;5029161;28;20578;-74
2022/07/17 13:48:50;;;;;;;3.27;1.30;;;24.40;99.90;;;;;;5033693;28;20481;-74
2022/07/17 13:51:39;;;;;;;2.40;1.63;;;24.50;99.90;;;;;;5029447;28;21412;-74
2022/07/17 13:54:27;;;;;;;2.00;1.30;;;24.60;99.90;;;;;;5028965;28;20494;-74
2022/07/17 13:57:15;;;;;;;1.53;1.00;;;24.60;99.90;;;;;;5024080;28;21074;-74
2022/07/17 14:00:05;;;;;;;2.20;1.30;;;24.80;99.90;;;;;;5026164;28;20488;-74
2022/07/17 14:02:53;;;;;;;1.80;1.40;;;24.90;99.90;;;;;;5033033;28;21049;-74
2022/07/17 14:05:42;;;;;;;1.43;1.33;;;25.00;99.90;;;;;;5028926;28;20558;-74
2022/07/17 14:08:32;;;;;;;3.10;1.53;;;25.10;99.90;;;;;;5023804;28;20944;-74
2022/07/17 14:11:20;;;;;;;1.50;1.30;;;25.20;99.90;;;;;;5028372;28;20463;-74
2022/07/17 14:14:08;;;;;;;4.77;1.53;;;25.20;99.90;;;;;;5027763;28;20527;-74
2022/07/17 14:16:57;;;;;;;1.90;1.73;;;25.30;99.90;;;;;;5027998;28;20935;-74
2022/07/17 14:19:46;;;;;;;1.53;1.17;;;25.40;99.90;;;;;;5026640;28;20594;-74
2022/07/17 14:22:35;;;;;;;1.63;1.53;;;25.30;99.90;;;;;;5022073;28;20802;-74
2022/07/17 14:25:24;;;;;;;1.70;1.53;;;25.30;99.90;;;;;;5027118;28;20569;-74
2022/07/17 14:28:12;;;;;;;1.70;1.60;;;25.50;99.90;;;;;;5025501;28;20538;-74
2022/07/17 14:31:00;;;;;;;3.77;1.70;;;25.70;99.90;;;;;;5029170;28;20452;-74
2022/07/17 14:33:49;;;;;;;1.70;1.60;;;25.90;99.90;;;;;;5029150;28;20454;-74
2022/07/17 14:36:37;;;;;;;1.63;1.53;;;25.90;99.90;;;;;;5021885;28;20499;-74
2022/07/17 14:39:27;;;;;;;1.60;1.50;;;26.10;99.90;;;;;;5031124;28;20459;-74
2022/07/17 14:42:15;;;;;;;1.93;1.40;;;26.30;99.90;;;;;;5030252;28;20828;-74
2022/07/17 14:45:04;;;;;;;2.07;1.70;;;26.30;99.90;;;;;;5025208;28;20528;-74